Home > Products > Valid Products > TAF

000
FTUS41 KCLE 281000 AAA
TAFCAK
TAF AMD
KCAK 281018Z 2810/2906 29008KT P6SM VCSH BKN010
      TEMPO 2810/2814 4SM -SHRA OVC022
     FM281600 33012G20KT P6SM BKN025
     FM290000 32006KT P6SM SCT035=



000
FTUS41 KCLE 281000 AAA
TAFYNG
TAF AMD
KYNG 281015Z 2810/2906 27004KT P6SM VCSH SCT007 BKN025
      TEMPO 2810/2814 32010KT 2SM SHRA BR OVC012
     FM281600 31015G22KT P6SM VCSH BKN025
     FM290000 35008KT P6SM BKN030=



000
FTUS41 KCLE 281000 AAC
TAFERI
TAF AMD
KERI 281011Z 2810/2906 31010KT P6SM -SHRA VCTS BKN013CB
      TEMPO 2810/2812 31010G18KT 3SM -TSRA BR OVC008CB
     FM281800 34014G22KT P6SM VCSH OVC015
     FM290000 32010KT P6SM BKN025=



000
FTUS41 KCLE 281000 AAB
TAFFDY
TAF AMD
KFDY 281007Z 2810/2906 28008KT P6SM BKN013
     FM281400 34014KT P6SM BKN025
     FM281800 34014G22KT P6SM BKN035
     FM290100 31006KT P6SM SCT040 BKN100=



000
FTUS41 KCLE 281000 AAA
TAFTOL
TAF AMD
KTOL 281004Z 2810/2906 30008KT P6SM BKN015 OVC035
     FM281400 34014KT P6SM BKN025
     FM281600 34014G22KT P6SM BKN035
     FM290100 27004KT P6SM SCT040 BKN100=



000
FTUS41 KCLE 280900 AAB
TAFCLE
TAF AMD
KCLE 280901Z 2809/2912 25006KT P6SM VCSH SCT020 BKN035
      TEMPO 2809/2811 3SM BR OVC016
     FM281100 32010KT 6SM -SHRA BR OVC018
      TEMPO 2811/2815 32015G22KT 3SM SHRA BR OVC008
     FM281500 34015G22KT 6SM BR VCSH BKN012 OVC035
     FM281800 34018G25KT P6SM BKN025
     FM290000 35008KT P6SM BKN030
     FM290500 28005KT P6SM SCT030=



000
FTUS41 KCLE 280800 AAB
TAFERI
TAF AMD
KERI 280806Z 2808/2906 23005KT 6SM -SHRA VCTS BKN018CB OVC060
      TEMPO 2808/2809 31010KT 2SM TSRA BR OVC008CB
     FM281000 33012KT 4SM -SHRA BR OVC008
      TEMPO 2810/2814 1SM +SHRA BR OVC012
     FM281800 34014G22KT P6SM VCSH OVC015
     FM290000 32010KT P6SM BKN025=



000
FTUS41 KCLE 280700 AAA
TAFFDY
TAF AMD
KFDY 280748Z 2808/2906 30008KT P6SM BKN013
      TEMPO 2810/2814 BKN008
     FM281500 34014KT P6SM BKN025
     FM281800 34014G22KT P6SM BKN035
     FM290100 31006KT P6SM SCT040 BKN100=



000
FTUS41 KCLE 280700 AAA
TAFERI
TAF AMD
KERI 280715Z 2807/2906 25005KT P6SM VCSH BKN018 OVC060
      TEMPO 2807/2809 31010KT 2SM +SHRA BR OVC008
     FM281000 33012KT 4SM -SHRA BR OVC008
      TEMPO 2810/2814 1SM +SHRA BR OVC012
     FM281800 34014G22KT P6SM VCSH OVC015
     FM290000 32010KT P6SM BKN025=



000
FTUS41 KCLE 280700 AAA
TAFMFD
TAF AMD
KMFD 280714Z 2807/2906 26008KT P6SM BKN003
      TEMPO 2807/2811 BKN008
     FM281200 32010KT P6SM OVC006
     FM281500 34014KT P6SM BKN018
     FM281800 34014G22KT P6SM BKN035
     FM290100 31006KT P6SM SCT040 BKN100=



000
FTUS41 KCLE 280600 CCA
TAFERI
TAF COR
KERI 280620Z 2806/2906 10005KT P6SM BKN060
     FM280800 30010KT 6SM -SHRA OVC012
      TEMPO 2808/2810 2SM +SHRA BR OVC008
     FM281000 33012KT 4SM -SHRA BR OVC008
      TEMPO 2810/2814 1SM +SHRA BR OVC012
     FM281800 34014G22KT P6SM VCSH OVC015
     FM290000 32010KT P6SM BKN025=



000
FTUS41 KCLE 280500 RRA
TAFERI
TAF
KERI 280547Z 2806/2906 10005KT P6SM OVC012
     FM280800 30010KT 6SM -SHRA OVC012
      TEMPO 2808/2810 2SM +SHRA BR OVC008
     FM281000 33012KT 4SM -SHRA BR OVC008
      TEMPO 2810/2814 1SM +SHRA BR OVC012
     FM281800 34014G22KT P6SM VCSH OVC015
     FM290000 32010KT P6SM BKN025=



000
FTUS41 KCLE 280500 RRA
TAFCLE
TAF
KCLE 280547Z 2806/2912 24008KT 5SM -TSRA BR BKN012CB OVC025
      TEMPO 2806/2807 1SM +TSRA BR OVC005CB
     FM280700 32010KT 4SM -SHRA BR OVC012
      TEMPO 2811/2814 32015G22KT 1SM SHRA BR OVC006
     FM281400 34015G22KT 6SM BR VCSH BKN012 OVC035
     FM281800 34018G25KT P6SM BKN025
     FM290000 35008KT P6SM BKN030
     FM290500 28005KT P6SM SCT030=



000
FTUS41 KCLE 280500 RRA
TAFCAK
TAF
KCAK 280547Z 2806/2906 27006KT P6SM BKN003 OVC007
      TEMPO 2806/2808 5SM BR OVC007
     FM280800 29008KT 5SM BR OVC007
      TEMPO 2810/2814 4SM -SHRA OVC012
     FM281600 33012G20KT P6SM OVC015=



000
FTUS41 KCLE 280500 RRA
TAFYNG
TAF
KYNG 280547Z 2806/2906 27004KT 3SM BR BKN005 OVC012
     FM280700 29006KT 5SM BR VCSH OVC012
      TEMPO 2807/2808 2SM +SHRA BKN008
     FM281000 31010KT 5SM -SHRA BR OVC009
      TEMPO 2812/2816 32015KT 2SM +SHRA BR OVC012
     FM281600 31015G22KT P6SM VCSH OVC015
     FM290000 35008KT P6SM BKN030=



000
FTUS41 KCLE 280500 RRA
TAFTOL
TAF
KTOL 280547Z 2806/2906 32006KT P6SM SCT035 BKN050
     FM280700 31010KT 5SM BR OVC012
      TEMPO 2810/2814 33012G20KT BKN006
     FM281500 34014KT P6SM BKN025
     FM281700 34014G22KT P6SM BKN035
     FM290100 27004KT P6SM SCT040 BKN100=



000
FTUS41 KCLE 280500 RRA
TAFFDY
TAF
KFDY 280547Z 2806/2906 28008KT P6SM SCT035 BKN060
     FM280900 31010KT 5SM BR OVC012
      TEMPO 2810/2814 BKN008
     FM281500 34014KT P6SM BKN025
     FM281800 34014G22KT P6SM BKN035
     FM290100 31006KT P6SM SCT040 BKN100=



000
FTUS41 KCLE 280500 RRA
TAFMFD
TAF
KMFD 280547Z 2806/2906 26008KT P6SM SCT035 OVC080
     FM280800 31010KT 5SM BR OVC012
      TEMPO 2810/2814 BKN008
     FM281500 34014KT P6SM BKN025
     FM281800 34014G22KT P6SM BKN035
     FM290100 31006KT P6SM SCT040 BKN100=



000
FTUS41 KCLE 280500 AAA
TAFCLE
TAF AMD
KCLE 280520Z 2805/2906 24008KT P6SM VCSH BKN013 OVC060
      TEMPO 2805/2807 28012KT 2SM SHRA OVC006
     FM280900 30010KT 5SM BR OVC012
     FM281800 34018G28KT P6SM BKN035=



000
FTUS41 KCLE 280400 AAB
TAFCAK
TAF AMD
KCAK 280434Z 2805/2824 27006KT P6SM BKN003 OVC007
      TEMPO 2805/2807 3SM BR OVC007
     FM280700 29008KT 3SM BR OVC006
     FM281500 33012G20KT P6SM OVC015=



000
FTUS41 KCLE 280400 AAC
TAFYNG
TAF AMD
KYNG 280431Z 2805/2824 27004KT 1 1/2SM BR BKN020
      TEMPO 2805/2807 BKN002
     FM280700 29006KT 2SM BR OVC006
     FM281200 31010KT 5SM BR OVC005
     FM281600 31012G20KT P6SM OVC015=



000
FTUS41 KCLE 280200 AAB
TAFYNG
TAF AMD
KYNG 280258Z 2803/2824 33003KT 6SM -SHRA SCT020 OVC080
     FM280500 29006KT P6SM OVC015
     FM280800 29006KT 5SM BR OVC012
     FM281200 31010KT 5SM BR OVC005
     FM281600 31012G20KT P6SM OVC015=



000
FTUS41 KCLE 280200 AAB
TAFERI
TAF AMD
KERI 280227Z 2802/2824 24006KT 6SM -SHRA VCTS OVC060CB
      TEMPO 2802/2804 3SM -TSRA OVC012CB
     FM280400 36006KT 6SM -SHRA BR SCT012 OVC035
     FM280600 34010KT 5SM BR OVC012
     FM281600 34014G22KT P6SM OVC015=



000
FTUS41 KCLE 280200 AAB
TAFCLE
TAF AMD
KCLE 280206Z 2802/2906 36008KT P6SM BKN012 OVC025
     FM280500 34008KT P6SM SCT025 OVC040
     FM280900 30010KT 5SM BR OVC012
     FM281800 34018G28KT P6SM BKN035=



000
FTUS41 KCLE 280200 AAA
TAFMFD
TAF AMD
KMFD 280203Z 2802/2824 34012G18KT P6SM VCSH SCT015 BKN025
      TEMPO 2802/2804 -SHRA BKN012
     FM280400 30008KT P6SM SCT020 OVC040
     FM281000 31010KT 5SM BR OVC006
     FM281500 33012KT P6SM OVC015=



000
FTUS41 KCLE 280100 AAA
TAFFDY
TAF AMD
KFDY 280122Z 2801/2824 28008KT P6SM VCSH SCT035 OVC100
     FM280500 29006KT P6SM SCT020 OVC040
     FM280900 31010KT 5SM BR OVC012
      TEMPO 2810/2814 BKN008
     FM281600 34014G22KT P6SM BKN035=



000
FTUS41 KCLE 280100 AAA
TAFYNG
TAF AMD
KYNG 280119Z 2801/2824 16008KT 3SM -TSRA OVC030CB
      TEMPO 2801/2803 VRB25G40KT 1 1/2SM -TSRA OVC015CB
     FM280400 29006KT P6SM OVC040
     FM280800 29006KT 5SM BR OVC012
     FM281200 31010KT 5SM BR OVC005
     FM281600 31012G20KT P6SM OVC015=



000
FTUS41 KCLE 280100 AAA
TAFCAK
TAF AMD
KCAK 280117Z 2801/2824 24010KT P6SM VCTS BKN040CB OVC100
      TEMPO 2801/2803 VRB25G40KT 2SM -TSRA OVC025CB
     FM280300 29006KT P6SM OVC040
     FM280800 29006KT 5SM BR OVC020
     FM281200 31010KT 5SM BR OVC008
     FM281600 33012G20KT P6SM OVC015=



000
FTUS41 KCLE 280000 AAA
TAFTOL
TAF AMD
KTOL 280058Z 2801/2824 01010G18KT 6SM -SHRA SCT035 OVC100
      TEMPO 2801/2802 5SM -SHRA BKN025
     FM280300 33010KT P6SM OVC035
     FM280800 31010KT 5SM BR OVC012
      TEMPO 2810/2814 BKN006
     FM281600 34014G22KT P6SM SCT020 BKN035=



000
FTUS41 KCLE 280000 AAA
TAFERI
TAF AMD
KERI 280027Z 2800/2824 36006KT 6SM -SHRA VCTS OVC035CB
      TEMPO 2800/2804 VRB25G35KT 1 1/2SM -TSRA OVC012CB
     FM280400 34006KT 4SM -SHRA BR SCT012 OVC025
     FM281000 34010KT 3SM BR OVC012
     FM281600 34014G22KT P6SM OVC015=



000
FTUS41 KCLE 272300 AAA
TAFCLE
TAF AMD
KCLE 272359Z 2800/2906 21008KT P6SM VCTS SCT020CB OVC035
      TEMPO 2800/2802 VRB25G35KT 1 1/2SM -TSRA BR OVC015CB
     FM280300 24008KT P6SM SCT025 OVC040
     FM280900 30010KT 5SM BR OVC012
     FM281800 34018G28KT P6SM BKN035=



000
FTUS41 KCLE 272300
TAFCLE
TAF
KCLE 272336Z 2800/2906 14008KT P6SM VCTS SCT025CB OVC040
      TEMPO 2800/2803 3SM -TSRA BR OVC025CB
     FM280300 24008KT P6SM SCT025 OVC040
     FM280900 30010KT 5SM BR OVC012
     FM281800 34018G28KT P6SM BKN035=



000
FTUS41 KCLE 272300
TAFFDY
TAF
KFDY 272336Z 2800/2824 24011KT P6SM VCTS SCT015 OVC035CB
      TEMPO 2800/2802 3SM -TSRA OVC015CB
     FM280300 29006KT P6SM SCT020 OVC040
     FM280900 31010KT 5SM BR OVC012
      TEMPO 2810/2814 BKN008
     FM281600 34014G22KT P6SM BKN035=



000
FTUS41 KCLE 272300
TAFCAK
TAF
KCAK 272336Z 2800/2824 24010KT P6SM BKN040 OVC100
     FM280300 29006KT P6SM OVC040
     FM280800 29006KT 5SM BR OVC020
     FM281200 31010KT 5SM BR OVC008
     FM281600 33012G20KT P6SM OVC015=



000
FTUS41 KCLE 272300
TAFERI
TAF
KERI 272336Z 2800/2824 36006KT 5SM -TSRA OVC030CB
      TEMPO 2800/2804 VRB25G35KT 1 1/2SM -TSRA OVC012CB
     FM280400 34006KT 4SM -SHRA BR SCT012 OVC025
     FM281000 34010KT 3SM BR OVC012
     FM281600 34014G22KT P6SM OVC015=



000
FTUS41 KCLE 272300
TAFTOL
TAF
KTOL 272336Z 2800/2824 29008KT P6SM VCTS SCT025CB OVC100
      TEMPO 2800/2802 3SM -TSRA BR OVC025CB
     FM280300 29006KT P6SM OVC040
     FM280800 31010KT 5SM BR OVC012
      TEMPO 2810/2814 BKN006
     FM281600 34014G22KT P6SM SCT020 BKN035=



000
FTUS41 KCLE 272300
TAFYNG
TAF
KYNG 272336Z 2800/2824 12008KT P6SM VCTS OVC040CB
      TEMPO 2800/2803 2SM -TSRA OVC015CB
     FM280400 29006KT P6SM OVC040
     FM280800 29006KT 5SM BR OVC012
     FM281200 31010KT 5SM BR OVC005
     FM281600 31012G20KT P6SM OVC015=



000
FTUS41 KCLE 272300
TAFMFD
TAF
KMFD 272336Z 2800/2824 24010KT P6SM VCTS OVC025CB
      TEMPO 2800/2802 3SM -TSRA OVC012CB
     FM280300 28008KT P6SM SCT020 OVC040
     FM281000 31010KT 5SM BR OVC006
     FM281500 33012KT P6SM OVC015=



000
FTUS41 KCLE 272100 AAA
TAFYNG
TAF AMD
KYNG 272100Z 2721/2818 20010KT 3SM -TSRA OVC025CB
      TEMPO 2721/2723 VRB25G35KT 3/4SM TSRA OVC012CB
     FM280000 30008KT 4SM -RA BR OVC040
     FM280600 29006KT P6SM SCT060 BKN100
     FM280900 29006KT 5SM BR SCT005 OVC150
     FM281200 31010KT 5SM BR OVC005
     FM281600 31012G20KT P6SM OVC015=



000
FTUS41 KCLE 272000 AAB
TAFCLE
TAF AMD
KCLE 272057Z 2721/2824 36008KT P6SM VCTS SCT025CB BKN040
      TEMPO 2723/2802 3SM TSRA BR OVC040CB
     FM280200 29008KT P6SM SCT060 BKN100
     FM280900 29010KT P6SM SCT008 OVC150
     FM281200 31010KT 5SM BR OVC008
     FM281500 33012G20KT P6SM OVC015
     FM281800 35012G20KT P6SM BKN035=



000
FTUS41 KCLE 272000 AAB
TAFMFD
TAF AMD
KMFD 272045Z 2721/2818 22010KT P6SM VCTS SCT012CB BKN040
      TEMPO 2721/2724 BKN012CB
     FM280000 29010KT 3SM -TSRA OVC012CB
      TEMPO 2800/2802 VRB25G35KT 1SM -TSRA OVC008CB
     FM280300 29008KT P6SM BKN020 OVC040
     FM281100 31010KT 5SM BR OVC006
     FM281500 33012KT P6SM OVC015=



000
FTUS41 KCLE 272000 AAB
TAFFDY
TAF AMD
KFDY 272029Z 2720/2818 24012G20KT P6SM VCTS BKN025CB OVC040
     FM272200 26014G20KT 5SM -TSRA OVC025CB
      TEMPO 2722/2801 VRB25G35KT 1 1/2SM -TSRA OVC015CB
     FM280100 29010KT P6SM VCSH SCT025 OVC040
     FM280300 29008KT P6SM SCT060 BKN100
     FM280800 29010KT P6SM SCT008 OVC150
     FM281100 31010KT 5SM BR OVC008
     FM281400 33012KT P6SM BKN015
     FM281700 35012G20KT P6SM BKN035=



000
FTUS41 KCLE 272000 AAA
TAFTOL
TAF AMD
KTOL 272011Z 2720/2818 22008KT P6SM VCTS SCT025CB BKN040
     FM272200 27008KT 5SM -TSRA BKN025CB OVC040
      TEMPO 2722/2802 1 1/2SM -TSRA BR OVC015CB
     FM280200 29006KT 5SM BR SCT060 BKN100
     FM280800 31010KT 5SM BR SCT006 OVC150
     FM281000 31010KT 5SM BR OVC006
     FM281400 34012KT P6SM BKN015
     FM281700 34012G20KT P6SM BKN035=



000
FTUS41 KCLE 271900 AAA
TAFERI
TAF AMD
KERI 271956Z 2720/2818 36006KT P6SM SCT030 BKN050
      TEMPO 2721/2801 3SM -TSRA OVC030CB
     FM280100 32006KT 4SM -RA BR SCT008 OVC040
     FM280700 34006KT 3SM -RA BR OVC005
     FM281200 01010KT 5SM BR OVC005
     FM281600 01012KT P6SM OVC015=



000
FTUS41 KCLE 271900 AAA
TAFCLE
TAF AMD
KCLE 271937Z 2720/2824 22008KT P6SM SCT025 BKN040
      TEMPO 2720/2721 3SM TSRA OVC025CB
     FM272100 01006KT P6SM BKN040
     FM272300 31006KT P6SM BKN040 OVC100
      TEMPO 2723/2803 3SM TSRA BR OVC040CB
     FM280300 29008KT P6SM SCT060 BKN100
     FM280900 29010KT P6SM SCT008 OVC150
     FM281200 31010KT 5SM BR OVC008
     FM281500 33012G20KT P6SM OVC015
     FM281800 35012G20KT P6SM BKN035=



000
FTUS41 KCLE 271800 AAA
TAFMFD
TAF AMD
KMFD 271854Z 2719/2818 22010KT P6SM SCT025 BKN040
      TEMPO 2720/2724 3SM TSRA OVC025CB
     FM280000 29010KT P6SM BKN040 OVC100
      TEMPO 2800/2804 5SM -SHRA BR OVC040
     FM280400 29008KT P6SM SCT060 BKN100
     FM280800 29010KT P6SM SCT006 OVC150
     FM281100 31010KT 5SM BR OVC006
     FM281500 33012KT P6SM OVC015=



000
FTUS41 KCLE 271800 AAA
TAFCAK
TAF AMD
KCAK 271854Z 2719/2818 22010KT P6SM BKN020 BKN040
      TEMPO 2719/2723 2SM TSRA OVC020CB
     FM272300 27010KT P6SM BKN040 OVC100
      TEMPO 2723/2802 5SM -SHRA BR OVC040
     FM280300 29006KT P6SM SCT060 BKN100
     FM280900 29006KT 5SM BR SCT005 OVC150
     FM281200 31010KT 5SM BR OVC005
     FM281600 33012G20KT P6SM OVC015=



000
FTUS41 KCLE 271800 AAA
TAFFDY
TAF AMD
KFDY 271853Z 2719/2818 22012G20KT P6SM SCT025 BKN040
      TEMPO 2720/2724 3SM -TSRA OVC025CB
     FM280000 29010KT P6SM BKN040 OVC100
      TEMPO 2800/2802 5SM -SHRA BR OVC040
     FM280200 29008KT P6SM SCT060 BKN100
     FM280800 29010KT P6SM SCT008 OVC150
     FM281100 31010KT 5SM BR OVC008
     FM281400 33012KT P6SM BKN015
     FM281700 35012G20KT P6SM BKN035=



000
FTUS41 KCLE 271700 RRA
TAFTOL
TAF
KTOL 271741Z 2718/2818 22006KT P6SM SCT025 BKN040
      TEMPO 2718/2722 3SM -TSRA OVC025CB
     FM272200 29008KT P6SM BKN040 OVC100
      TEMPO 2722/2802 5SM -SHRA BR OVC040
     FM280200 29006KT 5SM BR SCT060 BKN100
     FM280800 31010KT 5SM BR SCT006 OVC150
     FM281000 31010KT 5SM BR OVC006
     FM281400 34012KT P6SM BKN015
     FM281700 34012G20KT P6SM BKN035=



000
FTUS41 KCLE 271700 RRA
TAFMFD
TAF
KMFD 271741Z 2718/2818 22010KT P6SM SCT025 BKN040
      TEMPO 2718/2722 3SM TSRA OVC025CB
     FM272200 29010KT P6SM BKN040 OVC100
      TEMPO 2722/2802 5SM -SHRA BR OVC040
     FM280200 29008KT P6SM SCT060 BKN100
     FM280800 29010KT P6SM SCT006 OVC150
     FM281100 31010KT 5SM BR OVC006
     FM281500 33012KT P6SM OVC015=



000
FTUS41 KCLE 271700 RRA
TAFCLE
TAF
KCLE 271741Z 2718/2824 22010KT P6SM SCT025 BKN040
      TEMPO 2719/2723 3SM TSRA OVC025CB
     FM272300 33008KT P6SM BKN040 OVC100
      TEMPO 2723/2803 5SM -SHRA BR OVC040
     FM280300 29008KT P6SM SCT060 BKN100
     FM280900 29010KT P6SM SCT008 OVC150
     FM281200 31010KT 5SM BR OVC008
     FM281500 33012G20KT P6SM OVC015
     FM281800 35012G20KT P6SM BKN035=



000
FTUS41 KCLE 271700 RRA
TAFCAK
TAF
KCAK 271741Z 2718/2818 22010KT P6SM BKN020 BKN040
      TEMPO 2720/2724 2SM TSRA OVC020CB
     FM280000 27010KT P6SM BKN040 OVC100
      TEMPO 2800/2804 5SM -SHRA BR OVC040
     FM280400 29006KT P6SM SCT060 BKN100
     FM280900 29006KT 5SM BR SCT005 OVC150
     FM281200 31010KT 5SM BR OVC005
     FM281600 33012G20KT P6SM OVC015=



000
FTUS41 KCLE 271700 RRA
TAFYNG
TAF
KYNG 271741Z 2718/2818 22010KT P6SM BKN025 BKN040
      TEMPO 2720/2724 2SM TSRA OVC025CB
     FM280000 30008KT 4SM -RA BR OVC040
     FM280600 29006KT P6SM SCT060 BKN100
     FM280900 29006KT 5SM BR SCT005 OVC150
     FM281200 31010KT 5SM BR OVC005
     FM281600 31012G20KT P6SM OVC015=



000
FTUS41 KCLE 271700 RRA
TAFFDY
TAF
KFDY 271741Z 2718/2818 22010KT P6SM SCT025 BKN040
      TEMPO 2718/2722 3SM -TSRA OVC025CB
     FM272200 29010KT P6SM BKN040 OVC100
      TEMPO 2722/2802 5SM -SHRA BR OVC040
     FM280200 29008KT P6SM SCT060 BKN100
     FM280800 29010KT P6SM SCT008 OVC150
     FM281100 31010KT 5SM BR OVC008
     FM281400 33012KT P6SM BKN015
     FM281700 35012G20KT P6SM BKN035=



000
FTUS41 KCLE 271700 RRA
TAFERI
TAF
KERI 271741Z 2718/2818 26008KT P6SM SCT040
     FM272000 22006KT P6SM SCT030 BKN050
      TEMPO 2721/2801 3SM -TSRA OVC030CB
     FM280100 34006KT 4SM -RA BR SCT008 OVC040
     FM280700 34006KT 3SM -RA BR OVC005
     FM281200 01010KT 5SM BR OVC005
     FM281600 01012KT P6SM OVC015=



000
FTUS41 KCLE 271500 AAA
TAFERI
TAF AMD
KERI 271508Z 2715/2812 22008KT P6SM SCT035 BKN060
     FM272000 24008KT P6SM VCTS SCT025 OVC035CB
      TEMPO 2722/2802 2SM TSRA OVC025CB
     FM280300 35008KT 6SM -SHRA OVC035=



000
FTUS41 KCLE 271500 AAA
TAFYNG
TAF AMD
KYNG 271506Z 2715/2812 24006KT P6SM BKN015
     FM271600 24006KT P6SM BKN025
     FM271800 24008KT P6SM BKN035
     FM272100 24008KT P6SM VCTS BKN035CB OVC100
      TEMPO 2722/2802 2SM TSRA BR OVC015CB
     FM280500 26006KT 6SM BR VCSH OVC035=



000
FTUS41 KCLE 271500 AAB
TAFCAK
TAF AMD
KCAK 271504Z 2715/2812 22006KT 4SM BR BKN015
     FM271700 22008KT P6SM VCSH BKN025
     FM272000 24008KT P6SM VCTS BKN035CB OVC100
      TEMPO 2721/2801 2SM TSRA BR OVC015CB
     FM280500 26006KT 6SM BR VCSH OVC035=



000
FTUS41 KCLE 271500 AAB
TAFCLE
TAF AMD
KCLE 271503Z 2715/2818 22006KT P6SM BKN025
     FM271700 24008KT P6SM VCTS SCT025 BKN035CB
      TEMPO 2721/2801 2SM TSRA BR SCT015 OVC025CB
     FM280100 30008KT 6SM -SHRA VCTS BKN035CB OVC100
     FM280800 33012KT P6SM VCSH BKN025 OVC035=



000
FTUS41 KCLE 271200 AAB
TAFTOL
TAF AMD
KTOL 271258Z 2713/2812 24006KT 5SM BR BKN008 OVC015
     FM271500 27010KT P6SM VCSH BKN025 BKN100
     FM272100 31008KT P6SM VCTS BKN035CB OVC100
      TEMPO 2722/2802 2SM TSRA BR OVC015CB
     FM280400 29008KT 6SM BR SCT025 OVC035=



000
FTUS41 KCLE 271200 AAA
TAFCLE
TAF AMD
KCLE 271240Z 2713/2818 22006KT 4SM BR SCT012 BKN025
     FM271500 24006KT P6SM VCSH SCT025 BKN035
     FM271700 25008KT P6SM VCTS SCT025 BKN035CB
      TEMPO 2721/2801 2SM TSRA BR SCT015 OVC025CB
     FM280100 30008KT 6SM -SHRA VCTS BKN035CB OVC100
     FM280800 33012KT P6SM VCSH BKN025 OVC035=



000
FTUS41 KCLE 271200 AAA
TAFCAK
TAF AMD
KCAK 271240Z 2713/2812 VRB03KT 3SM BR SCT007 BKN015
     FM271500 22006KT P6SM VCSH SCT015 BKN035
     FM272100 26008KT P6SM VCTS BKN035CB OVC100
      TEMPO 2722/2802 2SM TSRA BR OVC015CB
     FM280500 26006KT 6SM BR VCSH OVC035=



000
FTUS41 KCLE 271200 AAA
TAFMFD
TAF AMD
KMFD 271239Z 2713/2812 22004KT 5SM BR SCT008 OVC020
     FM271500 22006KT P6SM VCSH SCT020 BKN035
     FM272000 26008KT P6SM VCTS BKN035CB OVC100
      TEMPO 2721/2801 2SM TSRA BR OVC015CB
     FM280500 26006KT 6SM BR OVC035=



000
FTUS41 KCLE 271200 AAA
TAFFDY
TAF AMD
KFDY 271238Z 2713/2812 22004KT 4SM BR SCT003 OVC020
     FM271500 25006KT P6SM VCSH SCT020 BKN035
     FM271900 28010KT P6SM VCTS BKN035CB OVC100
      TEMPO 2723/2803 2SM TSRA BR OVC015CB
     FM280400 28009KT 6SM BR OVC035=



000
FTUS41 KCLE 271200 AAA
TAFTOL
TAF AMD
KTOL 271237Z 2713/2812 22004KT 2SM BR VCSH BKN006 OVC025
     FM271430 25004KT 5SM BR OVC008
     FM271600 28010KT P6SM VCSH SCT035 BKN100
     FM272100 31008KT P6SM VCTS BKN035CB OVC100
      TEMPO 2722/2802 2SM TSRA BR OVC015CB
     FM280400 29008KT 6SM BR SCT025 OVC035=



000
FTUS41 KCLE 271100 CCA
TAFFDY
TAF COR
KFDY 271145Z 2712/2812 VRB03KT 3SM BR SCT003 OVC012
      TEMPO 2712/2713 3/4SM BR OVC003
     FM271500 25006KT P6SM VCSH SCT015 BKN035
     FM271900 28010KT P6SM VCTS BKN035CB OVC100
      TEMPO 2723/2803 2SM TSRA BR OVC015CB
     FM280400 28009KT 6SM BR OVC035=



000
FTUS41 KCLE 271100 CCA
TAFTOL
TAF COR
KTOL 271143Z 2712/2812 VRB03KT 2SM BR VCSH BKN003 OVC025
      TEMPO 2712/2713 1/4SM FG
     FM271500 25003KT 5SM BR OVC008
     FM271700 28010KT P6SM VCSH SCT035 BKN100
     FM272100 31008KT P6SM VCTS BKN035CB OVC100
      TEMPO 2722/2802 2SM TSRA BR OVC015CB
     FM280400 29008KT 6SM BR SCT025 OVC035=



000
FTUS41 KCLE 271100
TAFCLE
TAF
KCLE 271136Z 2712/2818 22008KT 4SM BR SCT012 OVC025
      TEMPO 2712/2714 1SM BR SCT006 OVC012
     FM271500 24006KT P6SM VCSH SCT015 BKN035
     FM271700 25008KT P6SM VCTS SCT025 BKN035CB
      TEMPO 2721/2801 2SM TSRA BR SCT015 OVC025CB
     FM280100 30008KT 6SM -SHRA VCTS BKN035CB OVC100
     FM280800 33012KT P6SM VCSH BKN025 OVC035=



000
FTUS41 KCLE 271100
TAFMFD
TAF
KMFD 271136Z 2712/2812 VRB04KT 2SM BR SCT008 OVC015
      TEMPO 2712/2713 3/4SM BR OVC008
     FM271500 22006KT P6SM VCSH SCT015 BKN035
     FM272000 26008KT P6SM VCTS BKN035CB OVC100
      TEMPO 2721/2801 2SM TSRA BR OVC015CB
     FM280500 26006KT 6SM BR OVC035=



000
FTUS41 KCLE 271100
TAFYNG
TAF
KYNG 271136Z 2712/2812 VRB04KT 2SM BR SCT004 OVC015
      TEMPO 2712/2714 1SM BR OVC004
     FM271500 22006KT P6SM VCSH SCT015 BKN035
     FM272100 26008KT P6SM VCTS BKN035CB OVC100
      TEMPO 2722/2802 2SM TSRA BR OVC015CB
     FM280500 26006KT 6SM BR VCSH OVC035=



000
FTUS41 KCLE 271100
TAFCAK
TAF
KCAK 271136Z 2712/2812 VRB03KT 2SM BR SCT004 OVC012
      TEMPO 2712/2714 1SM BR BKN004 OVC012
     FM271500 22006KT P6SM VCSH SCT015 BKN035
     FM272100 26008KT P6SM VCTS BKN035CB OVC100
      TEMPO 2722/2802 2SM TSRA BR OVC015CB
     FM280500 26006KT 6SM BR VCSH OVC035=



000
FTUS41 KCLE 271100
TAFERI
TAF
KERI 271136Z 2712/2812 26006KT 6SM BR SCT015 OVC035
     FM271400 23008KT P6SM BKN025 OVC035
     FM271800 28008KT P6SM VCTS SCT025 OVC035CB
      TEMPO 2722/2802 2SM TSRA SCT015 OVC025CB
     FM280300 35008KT 6SM -SHRA OVC035=



000
FTUS41 KCLE 271100
TAFTOL
TAF
KTOL 271136Z 2712/2812 VRB03KT 2SM BR VCSH BKN003 OVC025
      TEMPO 2712/2713 1/2SM FG
     FM271500 25003KT 5SM BR OVC008
     FM271700 28010KT P6SM VCSH SCT035 BKN100
     FM272100 31008KT P6SM VCTS BKN035CB OVC100
      TEMPO 2722/2802 2SM TSRA BR OVC015CB
     FM280400 29008KT 6SM BR SCT025 OVC035=



000
FTUS41 KCLE 271100
TAFFDY
TAF
KFDY 271136Z 2712/2812 VRB03KT 2SM BR BKN003 OVC015
      TEMPO 2712/2713 3/4SM BR OVC003
     FM271500 25006KT P6SM VCSH SCT015 BKN035
     FM271900 28010KT P6SM VCTS BKN035CB OVC100
      TEMPO 2723/2803 2SM TSRA BR OVC015CB
     FM280400 28009KT 6SM BR OVC035=



000
FTUS41 KCLE 270800 AAB
TAFTOL
TAF AMD
KTOL 270856Z 2709/2806 VRB03KT 2SM BR VCSH SCT003 OVC015
      TEMPO 2710/2712 1/2SM FG VV003
     FM271400 25003KT 5SM BR OVC008
     FM271700 28010KT P6SM VCSH SCT035 BKN100
     FM272100 31008KT P6SM VCTS BKN035CB OVC100
      TEMPO 2722/2802 2SM TSRA BR OVC015CB
     FM280400 29008KT 6SM BR SCT025 OVC035=



000
FTUS41 KCLE 270800 AAB
TAFCLE
TAF AMD
KCLE 270854Z 2709/2812 25008KT 4SM BR SCT006 OVC012
      TEMPO 2709/2712 2SM BR BKN006
     FM271500 24006KT P6SM VCSH SCT015 BKN035
     FM271700 25008KT P6SM VCTS SCT025 BKN035CB
      TEMPO 2721/2801 2SM TSRA BR SCT015 OVC025CB
     FM280100 30008KT 6SM -SHRA VCTS BKN035CB OVC100
     FM280800 33012KT P6SM VCSH BKN025 OVC035=



000
FTUS41 KCLE 270800 AAA
TAFYNG
TAF AMD
KYNG 270836Z 2709/2806 VRB04KT 5SM BR SCT008 OVC015
      TEMPO 2709/2713 1 1/2SM BR OVC008
     FM271500 22006KT P6SM VCSH SCT015 BKN035
     FM272100 26008KT P6SM VCTS BKN035CB OVC100
      TEMPO 2722/2802 2SM TSRA BR OVC015CB
     FM280500 26006KT 6SM BR VCSH OVC035=



000
FTUS41 KCLE 270800 AAA
TAFMFD
TAF AMD
KMFD 270835Z 2709/2806 VRB04KT 5SM BR SCT008 OVC015
      TEMPO 2709/2713 3/4SM BR OVC008
     FM271500 22006KT P6SM VCSH SCT015 BKN035
     FM272000 26008KT P6SM VCTS BKN035CB OVC100
      TEMPO 2721/2801 2SM TSRA BR OVC015CB
     FM280500 26006KT 6SM BR OVC035=



000
FTUS41 KCLE 270800 AAA
TAFTOL
TAF AMD
KTOL 270834Z 2709/2806 VRB03KT 3SM BR SCT003 OVC015
      TEMPO 2709/2712 1/2SM FG VV003
     FM271400 25003KT 5SM BR OVC008
     FM271700 28010KT P6SM VCSH SCT035 BKN100
     FM272100 31008KT P6SM VCTS BKN035CB OVC100
      TEMPO 2722/2802 2SM TSRA BR OVC015CB
     FM280400 29008KT 6SM BR SCT025 OVC035=



000
FTUS41 KCLE 270700 AAB
TAFCAK
TAF AMD
KCAK 270727Z 2707/2806 VRB03KT 4SM BR BKN008 OVC015
      TEMPO 2708/2712 3/4SM BR OVC006
     FM271500 22006KT P6SM VCSH SCT015 BKN035
     FM272100 26008KT P6SM VCTS BKN035CB OVC100
      TEMPO 2722/2802 2SM TSRA BR OVC015CB
     FM280500 26006KT 6SM BR VCSH OVC035=



000
FTUS41 KCLE 270700 AAA
TAFCAK
TAF AMD
KCAK 270709Z 2707/2806 VRB03KT 6SM BR SCT008 OVC015
      TEMPO 2709/2713 3/4SM BR OVC006
     FM271500 22006KT P6SM VCSH SCT015 BKN035
     FM272100 26008KT P6SM VCTS BKN035CB OVC100
      TEMPO 2722/2802 2SM TSRA BR OVC015CB
     FM280500 26006KT 6SM BR VCSH OVC035=



000
FTUS41 KCLE 270700 AAA
TAFCLE
TAF AMD
KCLE 270708Z 2707/2812 25008KT 4SM BR SCT008 OVC015
      TEMPO 2708/2712 2SM BR BKN008
     FM271500 24006KT P6SM VCSH SCT015 BKN035
     FM271700 25008KT P6SM VCTS SCT025 BKN035CB
      TEMPO 2721/2801 2SM TSRA BR SCT015 OVC025CB
     FM280100 30008KT 6SM -SHRA VCTS BKN035CB OVC100
     FM280800 33012KT P6SM VCSH BKN025 OVC035=



000
FTUS41 KCLE 270600 AAA
TAFFDY
TAF AMD
KFDY 270619Z 2706/2806 26004KT 2SM BR BKN008 OVC015
      TEMPO 2708/2712 3/4SM BR OVC003
     FM271500 25006KT P6SM VCSH SCT015 BKN035
     FM271900 28010KT P6SM VCTS BKN035CB OVC100
      TEMPO 2723/2803 2SM TSRA BR OVC015CB
     FM280400 28009KT 6SM BR OVC035=



000
FTUS41 KCLE 270500
TAFCAK
TAF
KCAK 270539Z 2706/2806 20006KT 5SM BR SCT008 OVC015
      TEMPO 2709/2713 3/4SM BR OVC006
     FM271500 22006KT P6SM VCSH SCT015 BKN035
     FM272100 26008KT P6SM VCTS BKN035CB OVC100
      TEMPO 2722/2802 2SM TSRA BR OVC015CB
     FM280500 26006KT 6SM BR VCSH OVC035=



000
FTUS41 KCLE 270500
TAFFDY
TAF
KFDY 270539Z 2706/2806 25004KT 4SM BR SCT008 OVC015
      TEMPO 2708/2712 3/4SM BR OVC003
     FM271500 25006KT P6SM VCSH SCT015 BKN035
     FM271900 28010KT P6SM VCTS BKN035CB OVC100
      TEMPO 2723/2803 2SM TSRA BR OVC015CB
     FM280400 28009KT 6SM BR OVC035=



000
FTUS41 KCLE 270500
TAFERI
TAF
KERI 270539Z 2706/2806 20012G20KT P6SM SCT015 OVC025
     FM271300 24008KT P6SM BKN025 OVC035
     FM271800 28008KT P6SM VCTS SCT025 OVC035CB
      TEMPO 2722/2802 2SM TSRA SCT015 OVC025CB
     FM280300 35008KT 6SM -SHRA OVC035=



000
FTUS41 KCLE 270500
TAFYNG
TAF
KYNG 270539Z 2706/2806 18006KT 6SM BR SCT015 OVC025
      TEMPO 2709/2713 1 1/2SM BR SCT006 OVC012
     FM271500 22006KT P6SM VCSH SCT015 BKN035
     FM272100 26008KT P6SM VCTS BKN035CB OVC100
      TEMPO 2722/2802 2SM TSRA BR OVC015CB
     FM280500 26006KT 6SM BR VCSH OVC035=



000
FTUS41 KCLE 270500
TAFCLE
TAF
KCLE 270539Z 2706/2812 20008KT 6SM BR SCT008 OVC015
      TEMPO 2708/2712 3SM BR BKN008
     FM271500 24006KT P6SM VCSH SCT015 BKN035
     FM271700 25008KT P6SM VCTS SCT025 BKN035CB
      TEMPO 2721/2801 2SM TSRA BR SCT015 OVC025CB
     FM280100 30008KT 6SM -SHRA VCTS BKN035CB OVC100
     FM280800 33012KT P6SM VCSH BKN025 OVC035=



000
FTUS41 KCLE 270500
TAFTOL
TAF
KTOL 270539Z 2706/2806 27004KT 2SM BR OVC003
      TEMPO 2708/2712 1/2SM FG VV002
     FM271400 25003KT 5SM BR OVC008
     FM271700 28010KT P6SM VCSH SCT035 BKN100
     FM272100 31008KT P6SM VCTS BKN035CB OVC100
      TEMPO 2722/2802 2SM TSRA BR OVC015CB
     FM280400 29008KT 6SM BR SCT025 OVC035=



000
FTUS41 KCLE 270500
TAFMFD
TAF
KMFD 270539Z 2706/2806 23006KT 5SM BR BKN008 OVC015
      TEMPO 2709/2713 3/4SM BR OVC003
     FM271500 22006KT P6SM VCSH SCT015 BKN035
     FM272000 26008KT P6SM VCTS BKN035CB OVC100
      TEMPO 2721/2801 2SM TSRA BR OVC015CB
     FM280500 26006KT 6SM BR OVC035=



000
FTUS41 KCLE 270400 AAA
TAFERI
TAF AMD
KERI 270435Z 2705/2724 20010KT P6SM SCT025 OVC035
      TEMPO 2705/2707 OVC025
     FM270700 23010KT 4SM BR OVC025
     FM271900 25008KT P6SM VCTS BKN035CB=



000
FTUS41 KCLE 270400 AAB
TAFCAK
TAF AMD
KCAK 270434Z 2705/2724 18006KT P6SM VCSH OVC035
      TEMPO 2705/2707 3SM TSRA BKN015CB OVC025
     FM270700 20003KT 4SM BR SCT012 OVC025
     FM271500 22008KT P6SM OVC030
     FM271800 19012KT P6SM VCTS OVC035CB=



000
FTUS41 KCLE 270300 AAA
TAFCAK
TAF AMD
KCAK 270325Z 2703/2724 18006KT P6SM VCSH OVC030
      TEMPO 2703/2706 5SM -SHRA OVC035
     FM270600 20003KT 4SM BR SCT012 OVC025
     FM271500 22008KT P6SM OVC030
     FM271800 19012KT P6SM VCTS OVC035CB=



000
FTUS41 KCLE 270200 AAA
TAFCLE
TAF AMD
KCLE 270258Z 2703/2806 19007KT P6SM VCSH OVC030
      TEMPO 2704/2706 OVC035
     FM270600 20007KT 5SM BR OVC025
     FM271500 22008KT P6SM OVC030
     FM271800 22012KT P6SM VCTS OVC035CB
      TEMPO 2719/2723 2SM -TSRA OVC015CB=



000
FTUS41 KCLE 262300
TAFMFD
TAF
KMFD 262338Z 2700/2724 18008KT P6SM BKN025
      TEMPO 2700/2704 SCT025
     FM270500 20004KT 4SM BR BKN012 OVC025
     FM271100 22003KT 2SM BR OVC007
     FM271600 22008KT P6SM VCTS OVC020CB=



000
FTUS41 KCLE 262300
TAFFDY
TAF
KFDY 262338Z 2700/2724 22010KT P6SM BKN025 OVC050
     FM270500 23003KT 4SM BR OVC015
     FM271500 22008KT P6SM VCTS OVC030CB=



000
FTUS41 KCLE 262300
TAFCAK
TAF
KCAK 262338Z 2700/2724 20006KT P6SM VCTS SCT025 OVC045CB
      TEMPO 2700/2703 3SM -TSRA OVC020CB
     FM270300 22007KT P6SM BKN035
     FM270600 23003KT 4SM BR SCT012 OVC025
     FM271500 22008KT P6SM OVC030
     FM271800 19012KT P6SM VCTS OVC035CB=



000
FTUS41 KCLE 262300
TAFCLE
TAF
KCLE 262338Z 2700/2806 21010KT 5SM -SHRA VCTS OVC025CB
      TEMPO 2700/2702 2SM -TSRA OVC015CB
     FM270300 22005KT 5SM BR OVC025
     FM271500 22008KT P6SM OVC030
     FM271800 22012KT P6SM VCTS OVC035CB
      TEMPO 2719/2723 2SM -TSRA OVC015CB=



000
FTUS41 KCLE 262300
TAFTOL
TAF
KTOL 262338Z 2700/2724 20007KT P6SM VCTS OVC025CB
     FM270300 23003KT 5SM BR SCT012 OVC020
     FM271500 22008KT P6SM VCTS OVC025CB=



000
FTUS41 KCLE 262300
TAFERI
TAF
KERI 262338Z 2700/2724 01006KT P6SM VCTS OVC060CB
      TEMPO 2700/2703 3SM -TSRA OVC025CB
     FM270300 24006KT P6SM SCT025 OVC040
     FM270600 23010KT 4SM BR OVC025
     FM271900 25008KT P6SM VCTS BKN035CB=



000
FTUS41 KCLE 262300
TAFYNG
TAF
KYNG 262338Z 2700/2724 21007KT P6SM VCTS BKN045CB
      TEMPO 2700/2704 2SM -TSRA OVC018CB
     FM270400 22007KT P6SM BKN025
     FM270600 23003KT 4SM BR SCT012 OVC025
     FM271500 22008KT P6SM OVC030
     FM271800 19012KT P6SM VCTS OVC035CB=



000
FTUS41 KCLE 262200 AAC
TAFCLE
TAF AMD
KCLE 262235Z 2623/2724 21010KT P6SM VCSH OVC050
      TEMPO 2623/2701 3SM -TSRA OVC025CB
     FM270500 23003KT 5SM BR OVC025
     FM271500 22008KT P6SM OVC035
     FM271800 19012KT P6SM VCTS OVC035CB
      TEMPO 2719/2723 2SM -TSRA OVC015CB=



000
FTUS41 KCLE 262200 AAB
TAFCLE
TAF AMD
KCLE 262219Z 2622/2724 21010KT P6SM VCSH OVC050
     FM270500 23003KT 5SM BR OVC025
     FM271500 22008KT P6SM OVC035
     FM271800 19012KT P6SM VCTS OVC035CB
      TEMPO 2719/2723 2SM -TSRA OVC015CB=



000
FTUS41 KCLE 262100 AAB
TAFFDY
TAF AMD
KFDY 262125Z 2621/2718 21007KT P6SM SCT025 BKN060
     FM270900 23003KT 4SM BR BKN030
     FM271500 22008KT P6SM VCTS OVC030CB=



000
FTUS41 KCLE 262100 AAA
TAFTOL
TAF AMD
KTOL 262123Z 2621/2718 20007KT P6SM SCT035 BKN060
     FM270900 23003KT 4SM BR BKN030
     FM271500 22008KT P6SM VCTS OVC030CB=



000
FTUS41 KCLE 262100 AAA
TAFCLE
TAF AMD
KCLE 262114Z 2621/2724 21010KT P6SM VCTS OVC050CB
     FM270500 23003KT 3SM BR BKN030
     FM271400 22008KT P6SM VCTS OVC030CB
     FM271800 19012KT P6SM OVC030
      TEMPO 2718/2722 3SM TSRA OVC025CB=



000
FTUS41 KCLE 262100 AAA
TAFCAK
TAF AMD
KCAK 262102Z 2621/2718 22010KT P6SM VCTS BKN045CB OVC080
      TEMPO 2621/2623 2SM -TSRA OVC018CB
     FM270600 23003KT 4SM BR BKN030
     FM271400 22008KT P6SM VCTS OVC030CB=



000
FTUS41 KCLE 262000 AAA
TAFMFD
TAF AMD
KMFD 262012Z 2620/2718 20008KT P6SM VCTS OVC040CB
      TEMPO 2620/2622 2SM -TSRA OVC020CB
     FM270600 23003KT 3SM BR BKN030
     FM271100 22003KT 2SM BR OVC007
     FM271400 22008KT P6SM VCTS OVC030CB=



000
FTUS41 KCLE 261900 AAA
TAFFDY
TAF AMD
KFDY 261905Z 2619/2718 19007KT P6SM BKN040
      TEMPO 2619/2622 28020G35KT 2SM TSRA OVC020CB
     FM262200 25007KT P6SM VCTS OVC040CB
     FM270600 23003KT 4SM BR BKN030
     FM271500 22008KT P6SM VCTS OVC030CB=



000
FTUS41 KCLE 261700
TAFTOL
TAF
KTOL 261724Z 2618/2718 25007KT P6SM BKN040
     FM262100 25007KT P6SM VCTS OVC040CB
     FM270600 23003KT 4SM BR BKN030
     FM271500 22008KT P6SM VCTS OVC030CB=



000
FTUS41 KCLE 261700
TAFFDY
TAF
KFDY 261724Z 2618/2718 24007KT P6SM BKN040
     FM262100 25007KT P6SM VCTS OVC040CB
     FM270600 23003KT 4SM BR BKN030
     FM271500 22008KT P6SM VCTS OVC030CB=



000
FTUS41 KCLE 261700
TAFYNG
TAF
KYNG 261724Z 2618/2718 23008KT P6SM BKN040
     FM262100 22007KT P6SM VCTS BKN045CB
     FM270600 23003KT 4SM BR BKN030
     FM271400 22008KT P6SM VCTS OVC030CB=



000
FTUS41 KCLE 261700
TAFERI
TAF
KERI 261724Z 2618/2718 23008KT P6SM VCTS BKN040CB
     FM270300 23010KT P6SM BKN040
     FM271400 25008KT P6SM VCTS BKN030CB=



000
FTUS41 KCLE 261700
TAFMFD
TAF
KMFD 261724Z 2618/2718 21008KT P6SM BKN040
     FM262100 25007KT P6SM VCTS OVC040CB
     FM270600 23003KT 3SM BR BKN030
     FM271100 22003KT 2SM BR OVC007
     FM271400 22008KT P6SM VCTS OVC030CB=



000
FTUS41 KCLE 261700
TAFCAK
TAF
KCAK 261724Z 2618/2718 22011KT P6SM BKN040
     FM262100 22008KT P6SM VCTS BKN045CB
     FM270600 23003KT 4SM BR BKN030
     FM271400 22008KT P6SM VCTS OVC030CB=



000
FTUS41 KCLE 261700
TAFCLE
TAF
KCLE 261724Z 2618/2724 21008KT P6SM SCT050 BKN110
     FM262100 22010KT P6SM VCTS BKN045CB
     FM270600 23003KT 3SM BR BKN030
     FM271400 22008KT P6SM VCTS OVC030CB
     FM271800 19012KT P6SM OVC030
      TEMPO 2718/2722 3SM TSRA OVC025CB=



000
FTUS41 KCLE 261400 AAA
TAFCLE
TAF AMD
KCLE 261441Z 2615/2718 21008KT P6SM SCT050 BKN110
     FM262000 22012KT P6SM BKN050
     FM270100 21008KT P6SM VCTS OVC040CB=



000
FTUS41 KCLE 261100
TAFCAK
TAF
KCAK 261131Z 2612/2712 18007KT P6SM BKN120 BKN250
     FM261400 21008KT P6SM SCT050 BKN100
     FM261900 23012KT P6SM BKN050
     FM262200 23012KT P6SM VCTS BKN040CB
     FM270100 21008KT P6SM VCSH OVC035=



000
FTUS41 KCLE 261100
TAFTOL
TAF
KTOL 261131Z 2612/2712 20007KT P6SM BKN150
     FM261300 20008KT P6SM SCT050 BKN070
     FM261800 20010KT P6SM BKN050
      TEMPO 2619/2623 3SM TSRA OVC025CB
     FM270100 21008KT P6SM VCTS OVC040CB=



000
FTUS41 KCLE 261100
TAFFDY
TAF
KFDY 261131Z 2612/2712 18007KT P6SM BKN150
     FM261300 21006KT P6SM SCT050 BKN080
     FM261800 20010KT P6SM BKN050
      TEMPO 2619/2623 3SM TSRA OVC025CB
     FM270100 21008KT P6SM VCTS OVC040CB=



000
FTUS41 KCLE 261100
TAFERI
TAF
KERI 261131Z 2612/2712 18007KT P6SM BKN090 BKN250
     FM261400 21010KT P6SM SCT050 BKN100
     FM262000 24012KT P6SM BKN050
     FM270000 26010KT P6SM BKN040=



000
FTUS41 KCLE 261100
TAFYNG
TAF
KYNG 261131Z 2612/2712 17007KT P6SM BKN080 BKN250
     FM261400 23008KT P6SM SCT050 BKN100
     FM261900 22010KT P6SM BKN050
     FM262200 23012KT P6SM VCTS BKN040CB
     FM270100 21008KT P6SM VCSH OVC035=



000
FTUS41 KCLE 261100
TAFCLE
TAF
KCLE 261131Z 2612/2718 17007KT P6SM BKN120
     FM261300 20008KT P6SM SCT050 BKN150
     FM261900 22012KT P6SM BKN050
      TEMPO 2622/2624 3SM TSRA OVC025CB
     FM270100 21008KT P6SM VCTS OVC040CB=



000
FTUS41 KCLE 261100
TAFMFD
TAF
KMFD 261131Z 2612/2712 18007KT P6SM BKN150
     FM261300 20008KT P6SM SCT050 BKN120
     FM261900 22012KT P6SM BKN050
      TEMPO 2621/2624 3SM TSRA OVC025CB
     FM270100 21008KT P6SM VCTS OVC040CB=



000
FTUS41 KCLE 260900 AAA
TAFYNG
TAF AMD
KYNG 260911Z 2609/2706 15007KT P6SM BKN070 BKN250
     FM261400 23008KT P6SM SCT050 BKN100
     FM261900 22010KT P6SM BKN050
     FM262200 23012KT P6SM VCTS BKN040CB
     FM270100 21008KT P6SM VCSH OVC035=



000
FTUS41 KCLE 260900 AAA
TAFCAK
TAF AMD
KCAK 260909Z 2609/2706 20006KT P6SM BKN080 BKN250
     FM261400 23008KT P6SM SCT050 BKN090
     FM261900 23012KT P6SM BKN050
     FM262200 23012KT P6SM VCTS BKN040CB
     FM270100 21008KT P6SM VCSH OVC035=



000
FTUS41 KCLE 260900 AAA
TAFCLE
TAF AMD
KCLE 260908Z 2609/2712 16007KT P6SM VCSH BKN080
     FM261300 20008KT P6SM SCT050 BKN090
     FM261900 22012KT P6SM BKN050 PROB30 2622/2624 3SM TSRA OVC025CB
     FM270100 21008KT P6SM VCTS OVC040CB=



000
FTUS41 KCLE 260500
TAFYNG
TAF
KYNG 260531Z 2606/2706 24005KT 5SM -SHRA BR BKN100 BKN250
     FM260900 22004KT 5SM BR BKN100
     FM261400 23008KT P6SM SCT050 BKN100
     FM261900 22010KT P6SM BKN050
     FM262200 23012KT P6SM VCTS BKN040CB
     FM270100 21008KT P6SM VCSH OVC035=



000
FTUS41 KCLE 260500
TAFERI
TAF
KERI 260531Z 2606/2706 32005KT P6SM -SHRA BKN090 BKN250
     FM260900 20005KT P6SM SCT100 BKN150
     FM261400 21010KT P6SM SCT050 BKN100
     FM262000 24012KT P6SM BKN050
     FM270000 26010KT P6SM BKN040=



000
FTUS41 KCLE 260500
TAFTOL
TAF
KTOL 260531Z 2606/2706 22008KT P6SM BKN150
     FM260900 22004KT 6SM BR BKN100
     FM261300 20006KT P6SM SCT050 BKN070
     FM261800 20010KT P6SM OVC050 PROB30 2619/2623 3SM TSRA OVC025CB
     FM270100 21008KT P6SM VCTS OVC040CB=



000
FTUS41 KCLE 260500
TAFCLE
TAF
KCLE 260531Z 2606/2712 16004KT P6SM VCSH BKN120
     FM260900 22004KT 6SM BR BKN100
     FM261300 20008KT P6SM SCT050 BKN100
     FM261900 22012KT P6SM BKN050 PROB30 2622/2624 3SM TSRA OVC025CB
     FM270100 21008KT P6SM VCTS OVC040CB=



000
FTUS41 KCLE 260500
TAFFDY
TAF
KFDY 260531Z 2606/2706 22008KT P6SM BKN150
     FM260900 21004KT 6SM BR BKN100
     FM261300 21006KT P6SM SCT050 BKN070
     FM261800 20010KT P6SM OVC050
      TEMPO 2619/2623 3SM TSRA OVC025CB
     FM270100 21008KT P6SM VCTS OVC040CB=



000
FTUS41 KCLE 260500
TAFMFD
TAF
KMFD 260531Z 2606/2706 21006KT P6SM BKN150
     FM260900 22004KT 6SM BR BKN100
     FM261300 20008KT P6SM SCT050 BKN100
     FM261900 22012KT P6SM BKN050
      TEMPO 2621/2624 3SM TSRA OVC025CB
     FM270100 21008KT P6SM VCTS OVC040CB=



000
FTUS41 KCLE 260500
TAFCAK
TAF
KCAK 260531Z 2606/2706 23005KT P6SM VCSH BKN100 BKN250
     FM260900 22004KT 5SM BR BKN100
     FM261400 23008KT P6SM SCT050 BKN100
     FM261900 23012KT P6SM BKN050
     FM262200 23012KT P6SM VCTS BKN040CB
     FM270100 21008KT P6SM VCSH OVC035=



000
FTUS41 KCLE 260200 AAA
TAFCLE
TAF AMD
KCLE 260253Z 2603/2706 16004KT P6SM BKN120
     FM261300 20008KT P6SM BKN100
     FM261900 22012KT P6SM BKN050 PROB30 2622/2624 3SM TSRA
      OVC025CB=



000
FTUS41 KCLE 252300
TAFMFD
TAF
KMFD 252328Z 2600/2624 21006KT P6SM BKN150
     FM261300 20008KT P6SM BKN100
     FM261900 22012KT P6SM BKN050 PROB30 2621/2624 3SM TSRA
      OVC025CB=



000
FTUS41 KCLE 252300
TAFERI
TAF
KERI 252328Z 2600/2624 32005KT P6SM BKN250
     FM260200 20005KT P6SM BKN150
     FM261400 21010KT P6SM BKN100
     FM262000 24012KT P6SM BKN050=



000
FTUS41 KCLE 252300
TAFCLE
TAF
KCLE 252328Z 2600/2706 36006KT P6SM BKN250
     FM260100 21004KT P6SM BKN150
     FM261300 20008KT P6SM BKN100
     FM261900 22012KT P6SM BKN050 PROB30 2622/2624 3SM TSRA
      OVC025CB=



000
FTUS41 KCLE 252300
TAFTOL
TAF
KTOL 252328Z 2600/2624 22008KT P6SM BKN150
     FM260900 22004KT P6SM BKN100
     FM261300 20006KT P6SM BKN070
     FM261800 20010KT P6SM OVC050 PROB30 2619/2623 3SM TSRA
      OVC025CB=



000
FTUS41 KCLE 252300
TAFFDY
TAF
KFDY 252328Z 2600/2624 22008KT P6SM BKN150
     FM260900 21004KT P6SM BKN100
     FM261300 21006KT P6SM BKN070
     FM261800 20010KT P6SM OVC050
      TEMPO 2619/2623 3SM TSRA OVC025CB=



000
FTUS41 KCLE 252300
TAFCAK
TAF
KCAK 252328Z 2600/2624 23005KT P6SM BKN250
     FM261400 23008KT P6SM BKN100
     FM261900 23012KT P6SM BKN050=



000
FTUS41 KCLE 252300
TAFYNG
TAF
KYNG 252328Z 2600/2624 24005KT P6SM BKN250
     FM261400 23008KT P6SM BKN100
     FM261900 22010KT P6SM BKN050=



000
FTUS41 KCLE 252000 AAA
TAFCLE
TAF AMD
KCLE 252052Z 2521/2624 36005KT P6SM SCT250
     FM261200 18010KT P6SM OVC060
     FM262100 23010KT P6SM VCSH BKN050 OVC100=



000
FTUS41 KCLE 251700
TAFERI
TAF
KERI 251727Z 2518/2618 29010KT P6SM SCT040 SCT250
     FM260300 17010KT P6SM SCT120 BKN250
     FM261400 20010KT P6SM VCSH BKN050 OVC100=



000
FTUS41 KCLE 251700
TAFMFD
TAF
KMFD 251727Z 2518/2618 20005KT P6SM SCT040 BKN150
     FM261300 20010KT P6SM OVC080=



000
FTUS41 KCLE 251700
TAFTOL
TAF
KTOL 251727Z 2518/2618 21010KT P6SM SCT060 BKN150
     FM260900 20006KT P6SM VCSH BKN060 OVC100
     FM261300 20010KT P6SM OVC060=



000
FTUS41 KCLE 251700
TAFFDY
TAF
KFDY 251727Z 2518/2618 21006KT P6SM SCT050 BKN150
     FM260900 19006KT P6SM VCSH BKN060 OVC100
     FM261300 20010KT P6SM OVC060=



000
FTUS41 KCLE 251700
TAFYNG
TAF
KYNG 251727Z 2518/2618 VRB04KT P6SM SCT040 SCT250
     FM261400 21010KT P6SM BKN050 OVC100=



000
FTUS41 KCLE 251700
TAFCLE
TAF
KCLE 251727Z 2518/2624 30004KT P6SM SCT050 BKN250
     FM261200 18010KT P6SM OVC060
     FM262100 23010KT P6SM VCSH BKN050 OVC100=



000
FTUS41 KCLE 251700
TAFCAK
TAF
KCAK 251727Z 2518/2618 23005KT P6SM SCT040 SCT250
     FM261400 21010KT P6SM BKN050 OVC100=



000
FTUS41 KCLE 251400 AAA
TAFCLE
TAF AMD
KCLE 251428Z 2514/2618 27008KT P6SM FEW030 SCT250
     FM251800 32004KT P6SM SCT250
     FM260000 22006KT P6SM SCT120 OVC250
     FM260600 19006KT P6SM BKN120 OVC200=



000
FTUS41 KCLE 251100
TAFERI
TAF
KERI 251131Z 2512/2612 18006KT P6SM SKC
     FM251400 22006KT P6SM FEW040 SCT250
     FM251800 29008KT P6SM SCT040 SCT250
     FM252300 25007KT P6SM SCT040 SCT250
     FM260300 24006KT P6SM SCT120 BKN250=



000
FTUS41 KCLE 251100
TAFYNG
TAF
KYNG 251131Z 2512/2612 VRB04KT 6SM BR SKC
     FM251300 23006KT P6SM FEW040
     FM252300 22005KT P6SM SCT040 SCT250
     FM260300 22006KT P6SM SCT120 BKN250
     FM260500 22006KT P6SM BKN150 OVC250=



000
FTUS41 KCLE 251100
TAFFDY
TAF
KFDY 251131Z 2512/2612 VRB04KT P6SM SCT250
     FM251500 21006KT P6SM FEW040 BKN250
     FM252300 21006KT P6SM SCT100 OVC250
     FM260500 22006KT P6SM BKN100 OVC200=



000
FTUS41 KCLE 251100
TAFTOL
TAF
KTOL 251131Z 2512/2612 VRB04KT P6SM SCT250
     FM251400 21005KT P6SM FEW040 BKN250
     FM252300 21006KT P6SM SCT100 OVC250
     FM260500 22006KT P6SM BKN100 OVC200=



000
FTUS41 KCLE 251100
TAFMFD
TAF
KMFD 251131Z 2512/2612 VRB04KT P6SM SCT250
     FM251300 20005KT P6SM SCT040 SCT250
     FM260100 21006KT P6SM SCT100 OVC250
     FM260500 22006KT P6SM BKN120 OVC200=



000
FTUS41 KCLE 251100
TAFCAK
TAF
KCAK 251131Z 2512/2612 VRB04KT P6SM SKC
     FM251300 23005KT P6SM SCT040 SCT250
     FM260000 22006KT P6SM SCT120 OVC250
     FM260500 22006KT P6SM BKN120 OVC200=



000
FTUS41 KCLE 251100
TAFCLE
TAF
KCLE 251131Z 2512/2618 VRB04KT P6SM SCT250
     FM251500 24008KT P6SM SCT050 SCT250
     FM260000 22006KT P6SM SCT120 OVC250
     FM260600 22006KT P6SM BKN120 OVC200=



    US Dept of Commerce
    National Oceanic and Atmospheric Administration
    National Weather Service
    1325 East West Highway
    Silver Spring, MD 20910
    Page Author: NWS Internet Services Team
Disclaimer
Information Quality
Credits
Glossary
Privacy Policy
Freedom of Information Act (FOIA)
About Us
Career Opportunities